createdAt,value
2019-05-23T00:38:05.638Z,48.58
2019-05-23T00:38:06.218Z,48.56
2019-05-23T00:38:06.811Z,48.46
2019-05-23T00:38:07.415Z,48.46
2019-05-23T00:38:08.010Z,48.56
2019-05-23T00:38:08.611Z,48.56
2019-05-23T00:39:03.288Z,48.66
2019-05-23T00:39:03.864Z,48.66
2019-05-23T00:39:04.465Z,48.58
2019-05-23T00:39:05.065Z,48.46
2019-05-23T00:39:05.664Z,48.66
2019-05-23T00:39:06.263Z,48.66
2019-05-23T00:40:00.943Z,48.66
2019-05-23T00:40:01.517Z,48.46
2019-05-23T00:40:02.122Z,48.37
2019-05-23T00:40:02.716Z,48.58
2019-05-23T00:40:03.315Z,48.46
2019-05-23T00:40:59.618Z,48.46
2019-05-23T00:41:00.192Z,48.56
2019-05-23T00:41:00.792Z,48.56
2019-05-23T00:41:01.391Z,48.77
2019-05-23T00:41:01.993Z,48.68
2019-05-23T00:41:02.592Z,48.46
2019-05-23T00:41:57.270Z,48.08
2019-05-23T00:41:57.854Z,48.27
2019-05-23T00:41:58.444Z,48.18
2019-05-23T00:41:59.044Z,48.37
2019-05-23T00:41:59.650Z,48.37
2019-05-23T00:42:00.246Z,48.37
2019-05-23T00:42:55.946Z,48.11
2019-05-23T00:42:56.519Z,47.99
2019-05-23T00:42:57.119Z,47.99
2019-05-23T00:42:57.721Z,47.99
2019-05-23T00:42:58.319Z,47.80
2019-05-23T00:43:00.121Z,47.99
2019-05-23T00:43:53.599Z,47.52
2019-05-23T00:43:54.178Z,47.61
2019-05-23T00:43:54.773Z,47.73
2019-05-23T00:43:55.374Z,47.52
2019-05-23T00:43:55.973Z,47.52
2019-05-23T00:44:51.252Z,47.89
2019-05-23T00:44:51.830Z,47.61
2019-05-23T00:44:52.424Z,47.71
2019-05-23T00:44:53.024Z,47.80
2019-05-23T00:44:53.625Z,47.71
2019-05-23T00:44:54.224Z,47.89
2019-05-23T00:45:48.906Z,47.61
2019-05-23T00:45:49.477Z,47.71
2019-05-23T00:45:50.077Z,47.61
2019-05-23T00:45:50.677Z,47.61
2019-05-23T00:45:51.280Z,47.61
2019-05-23T00:45:51.879Z,47.61
2019-05-23T00:46:47.579Z,47.71
2019-05-23T00:46:48.155Z,47.80
2019-05-23T00:46:48.753Z,47.71
2019-05-23T00:46:49.357Z,47.52
2019-05-23T00:46:49.952Z,47.71
2019-05-23T00:46:51.754Z,47.99
2019-05-23T00:47:45.232Z,47.80
2019-05-23T00:47:45.808Z,47.71
2019-05-23T00:47:46.405Z,47.61
2019-05-23T00:47:47.005Z,47.71
2019-05-23T00:47:47.605Z,47.61
2019-05-23T00:48:43.933Z,48.11
2019-05-23T00:48:44.479Z,47.99
2019-05-23T00:48:45.079Z,48.08
2019-05-23T00:48:45.685Z,47.82
2019-05-23T00:48:46.278Z,47.73
2019-05-23T00:48:46.877Z,48.08
2019-05-23T00:49:42.583Z,48.11
2019-05-23T00:49:43.160Z,48.08
2019-05-23T00:49:43.817Z,48.18
2019-05-23T00:49:44.358Z,48.18
2019-05-23T00:49:44.955Z,48.18
2019-05-23T00:49:45.560Z,48.01
2019-05-23T00:50:40.234Z,48.18
2019-05-23T00:50:40.809Z,48.27
2019-05-23T00:50:41.445Z,48.08
2019-05-23T00:50:42.008Z,48.01
2019-05-23T00:50:42.608Z,48.18
2019-05-23T00:50:44.409Z,48.08
2019-05-23T00:51:38.910Z,47.80
2019-05-23T00:51:39.484Z,48.11
2019-05-23T00:51:40.082Z,48.18
2019-05-23T00:51:40.684Z,48.11
2019-05-23T00:51:41.283Z,48.18
2019-05-23T00:52:36.565Z,47.73
2019-05-23T00:52:37.135Z,47.61
2019-05-23T00:52:37.736Z,47.61
2019-05-23T00:52:38.337Z,47.52
2019-05-23T00:52:38.935Z,47.54
2019-05-23T00:52:39.535Z,47.71
2019-05-23T00:53:35.251Z,47.73
2019-05-23T00:53:35.891Z,47.63
2019-05-23T00:53:36.417Z,47.73
2019-05-23T00:53:37.027Z,47.61
2019-05-23T00:53:37.650Z,47.71
2019-05-23T00:53:38.211Z,47.61
2019-05-23T00:54:33.913Z,47.80
2019-05-23T00:54:34.487Z,48.11
2019-05-23T00:54:35.091Z,48.01
2019-05-23T00:54:35.687Z,47.82
2019-05-23T00:54:36.286Z,47.99
2019-05-23T00:54:36.886Z,48.11
2019-05-23T00:55:32.590Z,48.18
2019-05-23T00:55:33.162Z,48.11
2019-05-23T00:55:33.762Z,48.21
2019-05-23T00:55:34.363Z,47.99
2019-05-23T00:55:34.963Z,48.11
2019-05-23T00:55:36.762Z,48.30
2019-05-23T00:56:31.267Z,48.37
2019-05-23T00:56:31.839Z,48.68
2019-05-23T00:56:32.438Z,48.58
2019-05-23T00:56:33.039Z,48.58
2019-05-23T00:56:33.639Z,48.49
2019-05-23T00:57:29.940Z,48.39
2019-05-23T00:57:30.513Z,48.39
2019-05-23T00:57:31.114Z,48.77
2019-05-23T00:57:31.717Z,48.39
2019-05-23T00:57:32.314Z,48.49
2019-05-23T00:57:32.919Z,48.39
2019-05-23T00:58:28.619Z,48.68
2019-05-23T00:58:29.190Z,48.30
2019-05-23T00:58:29.789Z,48.21
2019-05-23T00:58:30.391Z,48.49
2019-05-23T00:58:30.989Z,48.39
2019-05-23T00:58:31.590Z,48.39
2019-05-23T00:59:27.769Z,48.68
2019-05-23T00:59:27.868Z,48.30
2019-05-23T00:59:28.029Z,48.58
2019-05-23T00:59:28.113Z,48.39
2019-05-23T00:59:28.642Z,48.30
2019-05-23T00:59:30.441Z,48.49
2019-05-23T01:00:24.945Z,49.25
2019-05-23T01:00:25.518Z,48.68
2019-05-23T01:00:26.186Z,48.68
2019-05-23T01:00:26.719Z,49.06
2019-05-23T01:00:27.320Z,48.68
2019-05-23T01:01:22.603Z,49.54
2019-05-23T01:01:23.169Z,49.35
2019-05-23T01:01:23.770Z,49.54
2019-05-23T01:01:24.368Z,49.44
2019-05-23T01:01:24.977Z,49.44
2019-05-23T01:01:25.567Z,49.44
2019-05-23T01:02:21.276Z,49.44
2019-05-23T01:02:21.846Z,49.54
2019-05-23T01:02:22.445Z,49.54
2019-05-23T01:02:23.044Z,49.63
2019-05-23T01:02:23.644Z,49.35
2019-05-23T01:02:24.244Z,49.44
2019-05-23T01:03:18.970Z,49.35
2019-05-23T01:03:19.499Z,49.35
2019-05-23T01:03:20.098Z,49.35
2019-05-23T01:03:20.721Z,49.44
2019-05-23T01:03:21.297Z,49.15
2019-05-23T01:03:23.098Z,49.44
2019-05-23T01:04:17.600Z,49.63
2019-05-23T01:04:18.172Z,49.73
2019-05-23T01:04:18.776Z,49.73
2019-05-23T01:04:19.372Z,49.73
2019-05-23T01:04:19.971Z,49.54
2019-05-23T01:05:16.274Z,49.54
2019-05-23T01:05:16.849Z,49.54
2019-05-23T01:05:17.449Z,49.44
2019-05-23T01:05:18.051Z,49.25
2019-05-23T01:05:18.648Z,49.63
2019-05-23T01:05:19.247Z,49.54
2019-05-23T01:06:13.944Z,49.73
2019-05-23T01:06:14.501Z,49.63
2019-05-23T01:06:15.101Z,49.54
2019-05-23T01:06:15.706Z,49.73
2019-05-23T01:06:16.315Z,49.82
2019-05-23T01:06:16.899Z,49.63
2019-05-23T01:07:11.579Z,49.73
2019-05-23T01:07:12.152Z,49.73
2019-05-23T01:07:12.752Z,49.82
2019-05-23T01:07:13.354Z,49.82
2019-05-23T01:07:13.960Z,49.73
2019-05-23T01:08:09.231Z,50.01
2019-05-23T01:08:09.804Z,50.01
2019-05-23T01:08:10.404Z,50.01
2019-05-23T01:08:11.007Z,50.01
2019-05-23T01:08:11.608Z,50.01
2019-05-23T01:08:12.205Z,50.01
2019-05-23T04:51:26.391Z,89.36
2019-05-23T04:51:26.920Z,89.65
2019-05-23T04:51:27.520Z,89.55
2019-05-23T04:51:28.140Z,89.46
2019-05-23T04:51:28.721Z,88.89
2019-05-23T04:51:29.321Z,89.65
2019-05-23T04:52:24.000Z,89.60
2019-05-23T04:52:24.574Z,89.40
2019-05-23T04:52:25.173Z,89.36
2019-05-23T04:52:25.772Z,89.50
2019-05-23T04:52:26.374Z,89.65
2019-05-23T04:52:26.973Z,89.40
2019-05-23T04:53:22.682Z,89.94
2019-05-23T04:53:23.259Z,89.55
2019-05-23T04:53:23.847Z,89.55
2019-05-23T04:53:24.450Z,89.60
2019-05-23T04:53:25.048Z,89.60
2019-05-23T04:53:26.846Z,89.46
2019-05-23T04:54:20.328Z,90.08
2019-05-23T04:54:20.903Z,90.17
2019-05-23T04:54:21.501Z,90.08
2019-05-23T04:54:22.103Z,90.26
2019-05-23T04:54:22.701Z,90.12
2019-05-23T04:55:19.003Z,90.55
2019-05-23T04:55:19.576Z,90.26
2019-05-23T04:55:20.176Z,90.36
2019-05-23T04:55:20.775Z,89.98
2019-05-23T04:55:21.376Z,90.08
2019-05-23T04:55:21.977Z,90.08
2019-05-23T04:56:16.657Z,90.55
2019-05-23T04:56:17.232Z,90.93
2019-05-23T04:56:17.829Z,90.84
2019-05-23T04:56:18.429Z,90.84
2019-05-23T04:56:19.028Z,90.93
2019-05-23T04:56:19.630Z,91.03
2019-05-23T04:57:14.318Z,90.84
2019-05-23T04:57:14.882Z,90.93
2019-05-23T04:57:15.481Z,90.84
2019-05-23T04:57:16.135Z,90.74
2019-05-23T04:57:16.681Z,91.13
2019-05-23T04:58:11.962Z,91.50
2019-05-23T04:58:12.533Z,91.22
2019-05-23T04:58:13.131Z,91.50
2019-05-23T04:58:13.735Z,91.22
2019-05-23T04:58:14.333Z,91.41
2019-05-23T04:58:14.933Z,91.50
2019-05-23T04:59:10.635Z,91.79
2019-05-23T04:59:11.213Z,91.69
2019-05-23T04:59:11.811Z,91.69
2019-05-23T04:59:12.408Z,91.69
2019-05-23T04:59:13.008Z,91.79
2019-05-23T04:59:13.608Z,91.69
2019-05-23T05:00:12.296Z,91.98
2019-05-23T05:00:12.866Z,91.60
2019-05-23T05:00:13.455Z,91.60
2019-05-23T05:03:18.947Z,92.12
2019-05-23T05:03:19.121Z,93.08
2019-05-23T05:03:19.718Z,93.08
2019-05-23T05:03:20.314Z,93.46
2019-05-23T05:03:20.924Z,92.69
2019-05-23T05:03:21.515Z,92.69
2019-05-23T05:04:15.592Z,96.84
2019-05-23T05:04:16.160Z,96.75
2019-05-23T05:04:16.759Z,97.23
2019-05-23T05:04:17.360Z,97.42
2019-05-23T05:04:17.962Z,97.71
2019-05-23T05:04:19.168Z,97.42
2019-05-23T05:05:13.239Z,99.99
2019-05-23T05:05:13.831Z,99.99
2019-05-23T05:05:14.414Z,99.99
2019-05-23T05:05:15.013Z,99.99
2019-05-23T05:05:15.614Z,99.99
2019-05-23T05:06:10.889Z,99.99
2019-05-23T05:06:11.464Z,99.99
2019-05-23T05:06:12.078Z,99.99
2019-05-23T05:06:12.662Z,99.99
2019-05-23T05:06:13.264Z,99.99
2019-05-23T05:06:13.866Z,99.99
2019-05-23T05:07:09.571Z,99.99
2019-05-23T05:07:10.139Z,99.99
2019-05-23T05:07:10.737Z,99.99
2019-05-23T05:07:11.342Z,99.99
2019-05-23T05:07:11.937Z,99.99
2019-05-23T05:07:12.539Z,99.99
2019-05-23T05:08:07.261Z,99.99
2019-05-23T05:08:07.815Z,99.99
2019-05-23T05:08:08.511Z,99.99
2019-05-23T05:08:09.005Z,99.99
2019-05-23T05:08:09.693Z,99.99
2019-05-23T05:08:11.400Z,99.99
2019-05-23T05:09:05.894Z,99.99
2019-05-23T05:09:06.466Z,99.99
2019-05-23T05:09:07.069Z,99.99
2019-05-23T05:09:07.669Z,99.99
2019-05-23T05:09:08.268Z,99.99
2019-05-23T05:10:04.571Z,99.99
2019-05-23T05:10:05.142Z,99.99
2019-05-23T05:10:05.742Z,99.99
2019-05-23T05:10:06.347Z,99.99
2019-05-23T05:10:06.941Z,99.99
2019-05-23T05:10:07.544Z,99.99
2019-05-23T05:11:03.246Z,99.99
2019-05-23T05:11:03.818Z,99.99
2019-05-23T05:11:04.418Z,99.99
2019-05-23T05:11:05.024Z,99.99
2019-05-23T05:11:05.617Z,99.99
2019-05-23T05:11:06.218Z,99.99
2019-05-23T05:12:01.921Z,99.99
2019-05-23T05:12:02.503Z,99.99
2019-05-23T05:12:03.098Z,99.99
2019-05-23T05:12:03.709Z,99.99
2019-05-23T05:12:04.304Z,99.99
2019-05-23T05:12:04.893Z,99.99
2019-05-23T05:13:00.597Z,99.99
2019-05-23T05:13:01.172Z,99.99
2019-05-23T05:13:01.776Z,99.99
2019-05-23T05:13:02.372Z,99.99
2019-05-23T05:13:02.969Z,99.99
2019-05-23T05:13:04.769Z,99.99
2019-05-23T05:13:58.249Z,99.99
2019-05-23T05:13:58.823Z,99.99
2019-05-23T05:13:59.441Z,99.99
2019-05-23T05:14:00.025Z,99.99
2019-05-23T05:14:00.624Z,99.99
2019-05-23T05:14:55.902Z,99.99
2019-05-23T05:14:56.476Z,99.99
2019-05-23T05:14:57.085Z,99.99
2019-05-23T05:14:57.672Z,99.99
2019-05-23T05:14:58.274Z,99.99
2019-05-23T05:14:58.873Z,99.99
2019-05-23T05:15:54.576Z,99.99
2019-05-23T05:15:55.149Z,99.99
2019-05-23T05:15:55.750Z,99.99
2019-05-23T05:15:56.348Z,99.99
2019-05-23T05:15:56.950Z,99.99
2019-05-23T05:15:57.549Z,99.99
2019-05-23T05:16:53.257Z,99.99
2019-05-23T05:16:53.825Z,99.99
2019-05-23T05:16:54.425Z,99.99
2019-05-23T05:16:55.025Z,99.99
2019-05-23T05:16:55.623Z,99.99
2019-05-23T05:16:56.225Z,99.99
2019-05-23T05:17:51.927Z,99.99
2019-05-23T05:17:52.507Z,99.99
2019-05-23T05:17:53.175Z,99.99
2019-05-23T05:17:53.704Z,99.99
2019-05-23T05:17:54.307Z,99.99
2019-05-23T05:17:56.099Z,99.99
2019-05-23T05:18:49.581Z,99.99
2019-05-23T05:18:50.155Z,99.99
2019-05-23T05:18:50.755Z,99.99
2019-05-23T05:18:54.943Z,99.99
2019-05-23T05:18:55.056Z,99.99
2019-05-23T05:19:48.257Z,99.99
2019-05-23T05:19:48.830Z,99.99
2019-05-23T05:19:49.428Z,99.99
2019-05-23T05:19:50.028Z,99.99
2019-05-23T05:19:50.650Z,99.99
2019-05-23T05:19:51.227Z,99.99
2019-05-23T05:20:46.932Z,99.99
2019-05-23T05:20:47.505Z,99.99
2019-05-23T05:20:48.103Z,99.99
2019-05-23T05:20:48.704Z,99.99
2019-05-23T05:20:49.304Z,99.99
2019-05-23T05:20:49.904Z,99.99
2019-05-23T05:21:45.606Z,99.99
2019-05-23T05:21:46.180Z,99.99
2019-05-23T05:21:46.781Z,99.99
2019-05-23T05:21:47.379Z,99.99
2019-05-23T05:21:47.979Z,99.99
2019-05-23T05:21:48.579Z,99.99
2019-05-23T05:22:43.264Z,99.99
2019-05-23T05:22:43.832Z,99.99
2019-05-23T05:22:44.435Z,99.99
2019-05-23T05:22:45.032Z,99.99
2019-05-23T05:22:45.646Z,99.99
2019-05-23T05:23:41.936Z,99.99
2019-05-23T05:23:42.507Z,99.99
2019-05-23T05:23:43.107Z,99.99
2019-05-23T05:23:43.710Z,99.99
2019-05-23T05:23:44.309Z,99.99
2019-05-23T05:23:44.907Z,99.99
2019-05-23T05:24:40.610Z,99.99
2019-05-23T05:24:41.209Z,99.99
2019-05-23T05:24:41.802Z,99.99
2019-05-23T05:24:42.392Z,99.99
2019-05-23T05:24:42.982Z,99.99
2019-05-23T05:24:43.585Z,99.99
2019-05-23T05:25:39.286Z,99.99
2019-05-23T05:25:39.862Z,99.99
2019-05-23T05:25:40.459Z,99.99
2019-05-23T05:25:41.059Z,99.99
2019-05-23T05:25:41.660Z,99.99
2019-05-23T05:25:42.259Z,99.99
2019-05-23T05:26:37.962Z,99.99
2019-05-23T05:26:38.537Z,99.99
2019-05-23T05:26:39.136Z,99.99
2019-05-23T05:26:39.739Z,99.99
2019-05-23T05:26:40.335Z,99.99
2019-05-23T05:26:42.132Z,99.99
2019-05-23T05:27:35.619Z,99.99
2019-05-23T05:27:36.187Z,99.99
2019-05-23T05:27:36.791Z,99.99
2019-05-23T05:27:37.387Z,99.99
2019-05-23T05:27:37.986Z,99.99
2019-05-23T05:28:33.266Z,99.99
2019-05-23T05:28:33.840Z,99.99
2019-05-23T05:28:34.445Z,99.99
2019-05-23T05:28:35.037Z,99.99
2019-05-23T05:28:35.638Z,99.99
2019-05-23T05:28:36.238Z,99.99
2019-05-23T05:29:30.919Z,99.99
2019-05-23T05:29:31.492Z,99.99
2019-05-23T05:29:32.093Z,99.99
2019-05-23T05:29:32.688Z,99.99
2019-05-23T05:29:33.289Z,99.99
2019-05-23T05:29:33.888Z,99.99
2019-05-23T05:30:29.595Z,96.66
2019-05-23T05:30:30.166Z,96.94
2019-05-23T05:30:30.767Z,96.85
2019-05-23T05:30:31.369Z,96.94
2019-05-23T05:30:31.970Z,97.04
2019-05-23T05:30:33.787Z,96.46
2019-05-23T05:31:27.246Z,93.81
2019-05-23T05:31:27.821Z,93.91
2019-05-23T05:31:28.419Z,93.52
2019-05-23T05:31:29.023Z,92.94
2019-05-23T05:31:29.632Z,93.24
2019-05-23T05:32:42.862Z,90.39
2019-05-23T05:32:42.870Z,90.63
2019-05-23T05:32:43.320Z,90.48
2019-05-23T05:32:43.324Z,90.53
2019-05-23T05:32:43.392Z,90.72
2019-05-23T05:32:43.485Z,91.02
2019-05-23T05:33:23.628Z,87.88
2019-05-23T05:33:24.145Z,87.88
2019-05-23T05:33:24.745Z,88.26
2019-05-23T05:33:25.345Z,88.36
2019-05-23T05:33:25.945Z,88.17
2019-05-23T05:33:26.543Z,88.07
2019-05-23T05:34:21.227Z,84.54
2019-05-23T05:34:21.798Z,84.35
2019-05-23T05:34:22.397Z,84.35
2019-05-23T05:34:22.998Z,84.64
2019-05-23T05:34:23.598Z,84.44
2019-05-23T05:35:19.900Z,81.20
2019-05-23T05:35:20.475Z,81.01
2019-05-23T05:35:21.090Z,81.40
2019-05-23T05:35:21.674Z,81.20
2019-05-23T05:35:22.274Z,81.30
2019-05-23T05:35:22.875Z,80.82
2019-05-23T05:36:18.579Z,78.73
2019-05-23T05:36:19.151Z,78.83
2019-05-23T05:36:19.750Z,78.73
2019-05-23T05:36:20.353Z,78.73
2019-05-23T05:36:20.951Z,78.64
2019-05-23T05:36:21.550Z,78.44
2019-05-23T05:37:17.263Z,76.93
2019-05-23T05:37:17.825Z,77.13
2019-05-23T05:37:18.425Z,77.13
2019-05-23T05:37:19.025Z,77.22
2019-05-23T05:37:19.630Z,77.32
2019-05-23T05:37:20.223Z,77.13
2019-05-23T05:38:15.930Z,74.90
2019-05-23T05:38:16.514Z,75.10
2019-05-23T05:38:17.107Z,75.10
2019-05-23T05:38:17.700Z,74.71
2019-05-23T05:38:18.299Z,74.71
2019-05-23T05:38:20.105Z,74.81
2019-05-23T05:39:13.580Z,72.58
2019-05-23T05:39:14.178Z,72.88
2019-05-23T05:39:14.752Z,72.97
2019-05-23T05:39:15.351Z,72.91
2019-05-23T05:39:15.953Z,72.39
2019-05-23T05:40:11.237Z,73.30
2019-05-23T05:40:11.804Z,73.30
2019-05-23T05:40:12.403Z,73.30
2019-05-23T05:40:13.007Z,73.49
2019-05-23T05:40:13.605Z,73.20
2019-05-23T05:40:14.208Z,73.20
2019-05-23T05:41:10.418Z,73.24
2019-05-23T05:41:10.992Z,72.75
2019-05-23T05:41:11.591Z,73.04
2019-05-23T05:41:12.191Z,73.24
2019-05-23T05:41:12.795Z,73.24
2019-05-23T05:41:13.391Z,73.24
2019-05-23T05:42:08.483Z,72.85
2019-05-23T05:42:09.053Z,73.08
2019-05-23T05:42:09.663Z,73.08
2019-05-23T05:42:10.253Z,72.79
2019-05-23T05:42:10.852Z,72.79
2019-05-23T05:42:11.451Z,72.79
2019-05-23T05:43:06.134Z,71.62
2019-05-23T05:43:06.708Z,71.62
2019-05-23T05:43:07.304Z,71.72
2019-05-23T05:43:07.905Z,71.72
2019-05-23T05:43:08.504Z,71.62
2019-05-23T05:44:03.788Z,70.95
2019-05-23T05:44:04.357Z,70.86
2019-05-23T05:44:04.957Z,70.76
2019-05-23T05:44:05.558Z,70.66
2019-05-23T05:44:06.157Z,70.76
2019-05-23T05:44:06.758Z,70.86
2019-05-23T05:45:02.462Z,70.18
2019-05-23T05:45:03.032Z,70.08
2019-05-23T05:45:03.714Z,70.08
2019-05-23T05:45:04.564Z,70.08
2019-05-23T05:45:04.834Z,70.08
2019-05-23T05:45:05.433Z,69.89
2019-05-23T05:46:00.116Z,70.86
2019-05-23T05:46:00.685Z,70.76
2019-05-23T05:46:01.285Z,70.76
2019-05-23T05:46:01.892Z,70.86
2019-05-23T05:46:02.484Z,70.95
2019-05-23T05:46:04.285Z,70.82
2019-05-23T05:46:58.788Z,70.78
2019-05-23T05:46:59.362Z,70.88
2019-05-23T05:46:59.968Z,70.78
2019-05-23T05:47:00.559Z,70.59
2019-05-23T05:47:01.164Z,70.78
2019-05-23T05:47:57.475Z,72.16
2019-05-23T05:47:58.036Z,72.16
2019-05-23T05:47:58.636Z,71.88
2019-05-23T05:47:59.239Z,71.97
2019-05-23T05:47:59.838Z,72.03
2019-05-23T05:48:00.435Z,71.74
2019-05-23T05:49:07.816Z,74.33
2019-05-23T05:49:08.387Z,74.33
2019-05-23T05:49:09.019Z,74.62
2019-05-23T05:49:09.591Z,74.52
2019-05-23T05:49:10.182Z,74.43
2019-05-23T05:49:10.783Z,74.43
2019-05-23T05:50:05.465Z,76.76
2019-05-23T05:50:06.052Z,76.86
2019-05-23T05:50:06.640Z,77.15
2019-05-23T05:50:07.238Z,76.96
2019-05-23T05:50:07.837Z,77.15
2019-05-23T05:50:08.438Z,77.25
2019-05-23T05:51:03.123Z,79.28
2019-05-23T05:51:03.719Z,79.38
2019-05-23T05:51:04.373Z,79.58
2019-05-23T05:51:04.924Z,79.28
2019-05-23T05:51:05.644Z,79.28
2019-05-23T05:52:00.769Z,82.29
2019-05-23T05:52:01.343Z,81.99
2019-05-23T05:52:01.941Z,82.09
2019-05-23T05:52:02.548Z,82.29
2019-05-23T05:52:03.141Z,81.99
2019-05-23T05:52:03.743Z,82.29
2019-05-23T05:52:59.445Z,85.22
2019-05-23T05:53:00.024Z,85.03
2019-05-23T05:53:00.615Z,85.22
2019-05-23T05:53:01.214Z,85.32
2019-05-23T05:53:01.815Z,85.41
2019-05-23T05:53:02.415Z,85.41
2019-05-23T05:53:57.096Z,88.35
2019-05-23T05:53:57.669Z,88.25
2019-05-23T05:53:58.268Z,88.16
2019-05-23T05:53:58.870Z,88.35
2019-05-23T05:53:59.470Z,88.06
2019-05-23T05:54:01.268Z,88.64
2019-05-23T05:54:55.772Z,91.28
2019-05-23T05:54:56.346Z,90.90
2019-05-23T05:54:56.943Z,91.38
2019-05-23T05:55:00.818Z,91.47
2019-05-23T05:55:00.893Z,91.19
2019-05-23T05:55:54.450Z,95.17
2019-05-23T05:55:55.020Z,95.17
2019-05-23T05:55:55.619Z,95.36
2019-05-23T05:55:56.219Z,95.17
2019-05-23T05:55:56.820Z,96.13
2019-05-23T05:55:57.423Z,95.65
2019-05-23T05:56:52.102Z,99.99
2019-05-23T05:56:52.672Z,99.96
2019-05-23T05:56:53.271Z,99.99
2019-05-23T05:56:53.884Z,99.99
2019-05-23T05:56:54.470Z,99.99
2019-05-23T05:56:55.071Z,99.99
2019-05-23T05:57:50.932Z,99.99
2019-05-23T05:57:51.780Z,99.99
2019-05-23T05:57:51.946Z,99.99
2019-05-23T05:57:52.551Z,99.99
2019-05-23T05:57:53.145Z,99.99
2019-05-23T05:57:54.961Z,99.99
2019-05-23T05:58:48.427Z,99.99
2019-05-23T05:58:49.000Z,99.99
2019-05-23T05:58:49.612Z,99.99
2019-05-23T05:58:50.199Z,99.99
2019-05-23T05:58:50.799Z,99.99
2019-05-23T05:59:46.119Z,99.99
2019-05-23T05:59:46.652Z,99.99
2019-05-23T05:59:47.253Z,99.99
2019-05-23T05:59:47.852Z,99.99
2019-05-23T05:59:48.455Z,99.99
2019-05-23T05:59:49.051Z,99.99
2019-05-23T06:00:44.755Z,99.99
2019-05-23T06:00:45.328Z,99.99
2019-05-23T06:00:45.926Z,99.99
2019-05-23T06:00:46.527Z,99.99
2019-05-23T06:00:47.128Z,99.99
2019-05-23T06:00:47.730Z,99.99
2019-05-23T06:01:43.437Z,99.99
2019-05-23T06:01:44.001Z,99.99
2019-05-23T06:01:44.601Z,99.99
2019-05-23T06:01:45.201Z,99.99
2019-05-23T06:01:45.811Z,99.99
2019-05-23T06:01:46.399Z,99.99
2019-05-23T06:02:42.105Z,99.99
2019-05-23T06:02:42.697Z,99.99
2019-05-23T06:03:00.767Z,99.99
2019-05-23T06:03:00.855Z,99.99
2019-05-23T06:03:00.861Z,99.99
2019-05-23T06:03:02.715Z,99.99
2019-05-23T06:03:40.781Z,99.99
2019-05-23T06:03:41.356Z,99.99
2019-05-23T06:03:41.953Z,99.99
2019-05-23T06:03:42.553Z,99.99
2019-05-23T06:03:43.152Z,99.99
2019-05-23T06:04:39.462Z,99.99
2019-05-23T06:04:40.031Z,99.99
2019-05-23T06:04:40.636Z,99.99
2019-05-23T06:04:41.228Z,99.99
2019-05-23T06:04:41.833Z,99.99
2019-05-23T06:04:42.431Z,99.99
2019-05-23T06:05:38.141Z,99.99
2019-05-23T06:05:38.704Z,99.99
2019-05-23T06:05:39.303Z,99.99
2019-05-23T06:05:39.906Z,99.99
2019-05-23T06:05:40.505Z,99.99
2019-05-23T06:05:41.113Z,99.99
2019-05-23T06:06:36.809Z,99.99
2019-05-23T06:06:37.380Z,99.99
2019-05-23T06:06:37.981Z,99.99
2019-05-23T06:06:38.579Z,99.99
2019-05-23T06:06:39.179Z,99.99
2019-05-23T06:06:39.782Z,99.99
2019-05-23T06:07:35.486Z,99.99
2019-05-23T06:07:36.059Z,99.99
2019-05-23T06:07:36.655Z,99.99
2019-05-23T06:07:37.262Z,99.99
2019-05-23T06:07:37.855Z,99.99
2019-05-23T06:07:39.655Z,99.99
2019-05-23T06:08:34.170Z,99.99
2019-05-23T06:08:34.731Z,99.99
2019-05-23T06:08:35.331Z,99.99
2019-05-23T06:08:35.931Z,99.99
2019-05-23T06:08:36.533Z,99.99
2019-05-23T06:09:32.837Z,99.99
2019-05-23T06:09:33.409Z,99.99
2019-05-23T06:09:34.007Z,99.99
2019-05-23T06:09:34.611Z,99.99
2019-05-23T06:09:35.207Z,99.99
2019-05-23T06:09:35.811Z,99.99
2019-05-23T06:10:30.487Z,99.99
2019-05-23T06:10:31.064Z,99.99
2019-05-23T06:10:31.660Z,99.99
2019-05-23T06:10:32.264Z,99.99
2019-05-23T06:10:32.861Z,99.99
2019-05-23T06:10:33.459Z,99.99
2019-05-23T06:11:28.139Z,99.99
2019-05-23T06:11:28.711Z,99.99
2019-05-23T06:11:29.325Z,99.99
2019-05-23T06:11:29.911Z,99.99
2019-05-23T06:11:30.511Z,99.99
2019-05-23T06:12:25.803Z,99.99
2019-05-23T06:12:26.362Z,99.99
2019-05-23T06:12:26.962Z,99.99
2019-05-23T06:12:27.565Z,99.99
2019-05-23T06:12:28.167Z,99.99
2019-05-23T06:12:28.761Z,99.99
2019-05-23T06:13:23.442Z,99.99
2019-05-23T06:13:24.015Z,99.99
2019-05-23T06:13:24.614Z,99.99
2019-05-23T06:13:25.216Z,99.99
2019-05-23T06:13:25.816Z,99.99
2019-05-23T06:13:26.414Z,99.99
2019-05-23T06:14:22.124Z,99.99
2019-05-23T06:14:22.693Z,99.99
2019-05-23T06:14:23.295Z,99.99
2019-05-23T06:14:23.892Z,99.99
2019-05-23T06:14:24.508Z,99.99
2019-05-23T06:14:26.290Z,99.99
2019-05-23T06:15:19.770Z,99.99
2019-05-23T06:15:20.351Z,99.99
2019-05-23T06:15:20.944Z,99.99
2019-05-23T06:15:21.544Z,99.99
2019-05-23T06:15:22.142Z,99.99
2019-05-23T06:16:17.454Z,99.99
2019-05-23T06:16:18.008Z,99.99
2019-05-23T06:16:18.602Z,99.99
2019-05-23T06:16:19.212Z,99.99
2019-05-23T06:16:19.795Z,99.99
2019-05-23T06:16:20.393Z,99.99
2019-05-23T06:17:16.115Z,99.99
2019-05-23T06:17:16.670Z,99.99
2019-05-23T06:17:17.271Z,99.99
2019-05-23T06:17:17.868Z,99.99
2019-05-23T06:17:18.471Z,99.99
2019-05-23T06:17:19.067Z,99.99
2019-05-23T06:18:13.748Z,99.99
2019-05-23T06:18:14.322Z,99.99
2019-05-23T06:18:14.921Z,99.99
2019-05-23T06:18:15.521Z,99.99
2019-05-23T06:18:16.129Z,99.99
2019-05-23T06:18:17.925Z,99.99
2019-05-23T06:19:12.426Z,99.99
2019-05-23T06:19:13.005Z,99.99
2019-05-23T06:19:13.598Z,99.99
2019-05-23T06:19:14.198Z,99.99
2019-05-23T06:19:14.797Z,99.99
2019-05-23T06:20:10.077Z,99.99
2019-05-23T06:20:10.652Z,99.99
2019-05-23T06:20:11.249Z,99.99
2019-05-23T06:20:11.848Z,99.99
2019-05-23T06:20:12.448Z,99.99
2019-05-23T06:20:13.050Z,99.99
2019-05-23T06:21:07.728Z,99.99
2019-05-23T06:21:08.303Z,99.99
2019-05-23T06:21:08.900Z,99.99
2019-05-23T06:21:09.502Z,99.99
2019-05-23T06:21:10.106Z,99.99
2019-05-23T06:21:10.706Z,99.99
2019-05-23T06:22:05.407Z,99.99
2019-05-23T06:22:05.954Z,99.99
2019-05-23T06:22:06.552Z,99.99
2019-05-23T06:22:07.153Z,99.99
2019-05-23T06:22:07.752Z,99.99
2019-05-23T06:23:03.035Z,99.99
2019-05-23T06:23:03.626Z,99.99
2019-05-23T06:23:04.205Z,99.99
2019-05-23T06:23:04.813Z,99.99
2019-05-23T06:23:05.414Z,99.99
2019-05-23T06:23:06.002Z,99.99
2019-05-23T06:24:00.690Z,99.99
2019-05-23T06:24:01.256Z,99.99
2019-05-23T06:24:01.858Z,99.99
2019-05-23T06:24:02.457Z,99.99
2019-05-23T06:24:03.059Z,99.99
2019-05-23T06:24:03.658Z,99.99
2019-05-23T06:24:58.398Z,99.99
2019-05-23T06:24:58.910Z,99.99
2019-05-23T06:24:59.509Z,99.99
2019-05-23T06:25:00.122Z,99.99
2019-05-23T06:25:00.723Z,99.99
2019-05-23T06:25:55.987Z,99.99
2019-05-23T06:25:56.558Z,99.99
2019-05-23T06:25:57.160Z,99.99
2019-05-23T06:25:57.761Z,99.99
2019-05-23T06:25:58.361Z,99.99
2019-05-23T06:25:58.959Z,99.99
2019-05-23T06:26:53.640Z,99.99
2019-05-23T06:26:54.211Z,99.99
2019-05-23T06:26:54.812Z,99.99
2019-05-23T06:26:55.412Z,99.99
2019-05-23T06:26:56.011Z,99.99
2019-05-23T06:26:56.611Z,99.99
2019-05-23T06:27:51.290Z,99.99
2019-05-23T06:27:51.862Z,99.99
2019-05-23T06:27:52.462Z,99.99
2019-05-23T06:27:53.062Z,99.99
2019-05-23T06:27:53.663Z,99.99
2019-05-23T06:28:49.965Z,99.99
2019-05-23T06:28:50.537Z,99.99
2019-05-23T06:28:51.147Z,99.99
2019-05-23T06:28:51.758Z,99.99
2019-05-23T06:28:52.340Z,99.99
2019-05-23T06:28:52.937Z,99.99
2019-05-23T06:29:47.618Z,99.99
2019-05-23T06:29:48.190Z,99.99
2019-05-23T06:29:48.792Z,99.99
2019-05-23T06:29:49.392Z,99.99
2019-05-23T06:29:49.994Z,99.99
2019-05-23T06:29:50.590Z,99.99
2019-05-23T06:30:45.270Z,99.99
2019-05-23T06:30:45.845Z,99.99
2019-05-23T06:30:46.454Z,99.99
2019-05-23T06:30:47.041Z,99.99
2019-05-23T06:30:47.647Z,99.99
2019-05-23T06:31:43.945Z,99.99
2019-05-23T06:31:44.522Z,99.99
2019-05-23T06:31:45.122Z,99.99
2019-05-23T06:31:45.718Z,99.99
2019-05-23T06:31:46.329Z,99.99
2019-05-23T06:31:46.916Z,99.99
2019-05-23T06:32:41.630Z,99.99
2019-05-23T06:32:42.167Z,99.99
2019-05-23T06:32:42.774Z,99.99
2019-05-23T06:32:43.369Z,99.99
2019-05-23T06:32:43.974Z,99.99